createdAt,value
2023-02-15T00:01:21.884Z,50.74
2023-02-15T00:03:53.667Z,50.50
2023-02-15T00:06:20.396Z,50.56
2023-02-15T00:08:49.282Z,50.35
2023-02-15T00:11:17.396Z,50.76
2023-02-15T00:13:46.216Z,50.66
2023-02-15T00:16:13.653Z,50.50
2023-02-15T00:18:41.119Z,50.57
2023-02-15T00:21:09.776Z,50.75
2023-02-15T00:23:39.311Z,50.95
2023-02-15T00:26:12.791Z,51.13
2023-02-15T00:28:39.761Z,50.95
2023-02-15T00:31:13.175Z,50.95
2023-02-15T00:33:40.199Z,51.11
2023-02-15T00:36:08.228Z,51.00
2023-02-15T00:38:34.975Z,51.07
2023-02-15T00:41:05.304Z,51.24
2023-02-15T00:43:34.597Z,51.38
2023-02-15T00:46:04.289Z,51.27
2023-02-15T00:48:31.132Z,51.51
2023-02-15T00:50:59.218Z,51.63
2023-02-15T00:53:31.139Z,51.71
2023-02-15T00:55:58.337Z,51.66
2023-02-15T00:58:25.269Z,51.68
2023-02-15T01:00:52.151Z,51.86
2023-02-15T01:03:19.362Z,51.90
2023-02-15T01:05:46.103Z,51.98
2023-02-15T01:08:15.659Z,52.14
2023-02-15T01:10:44.970Z,52.09
2023-02-15T01:13:16.414Z,52.09
2023-02-15T01:15:48.824Z,52.07
2023-02-15T01:18:15.504Z,52.08
2023-02-15T01:20:42.588Z,52.06
2023-02-15T01:23:14.482Z,52.06
2023-02-15T01:25:43.475Z,52.01
2023-02-15T01:28:12.424Z,52.12
2023-02-15T01:30:39.176Z,52.25
2023-02-15T01:33:05.846Z,51.93
2023-02-15T01:35:32.617Z,51.98
2023-02-15T01:38:01.991Z,52.01
2023-02-15T01:40:33.422Z,52.14
2023-02-15T01:43:00.086Z,52.18
2023-02-15T01:45:33.596Z,52.31
2023-02-15T01:48:07.922Z,52.50
2023-02-15T01:50:41.384Z,52.76
2023-02-15T01:53:17.770Z,52.53
2023-02-15T01:55:51.262Z,52.86
2023-02-15T01:58:18.020Z,52.78
2023-02-15T02:00:44.806Z,52.88
2023-02-15T02:03:13.566Z,52.79
2023-02-15T02:05:42.395Z,52.71
2023-02-15T02:08:13.802Z,52.85
2023-02-15T02:10:40.519Z,53.20
2023-02-15T02:13:10.369Z,53.33
2023-02-15T02:15:53.371Z,53.11
2023-02-15T02:18:45.869Z,53.27
2023-02-15T02:21:30.866Z,53.25
2023-02-15T02:24:12.472Z,53.36
2023-02-15T02:27:02.740Z,53.62
2023-02-15T02:29:55.607Z,53.73
2023-02-15T02:32:33.292Z,53.75
2023-02-15T02:35:08.883Z,54.01
2023-02-15T02:38:06.908Z,53.77
2023-02-15T02:40:53.778Z,53.46
2023-02-15T02:43:42.717Z,53.88
2023-02-15T02:46:21.582Z,53.89
2023-02-15T02:48:51.566Z,53.76
2023-02-15T02:51:22.430Z,53.89
2023-02-15T02:53:53.743Z,53.89
2023-02-15T02:56:32.477Z,53.79
2023-02-15T02:59:06.620Z,54.07
2023-02-15T03:01:41.270Z,54.17
2023-02-15T03:04:15.214Z,54.28
2023-02-15T03:06:48.177Z,54.43
2023-02-15T03:09:44.122Z,54.36
2023-02-15T03:12:18.520Z,54.56
2023-02-15T03:14:46.143Z,54.61
2023-02-15T03:17:17.687Z,54.38
2023-02-15T03:19:46.757Z,54.49
2023-02-15T03:22:21.114Z,54.41
2023-02-15T03:25:18.629Z,54.21
2023-02-15T03:27:52.144Z,54.34
2023-02-15T03:30:21.717Z,54.20
2023-02-15T03:32:48.841Z,54.22
2023-02-15T03:35:20.223Z,54.33
2023-02-15T03:37:49.501Z,54.20
2023-02-15T03:40:37.979Z,54.42
2023-02-15T03:43:28.694Z,54.70
2023-02-15T03:46:00.670Z,54.46
2023-02-15T03:48:43.765Z,54.68
2023-02-15T03:51:31.901Z,54.42
2023-02-15T03:53:58.536Z,54.21
2023-02-15T03:56:25.499Z,54.35
2023-02-15T03:59:13.229Z,54.18
2023-02-15T04:02:00.131Z,54.33
2023-02-15T04:04:32.822Z,54.19
2023-02-15T04:07:02.152Z,54.20
2023-02-15T04:09:47.743Z,54.33
2023-02-15T04:12:14.480Z,54.41
2023-02-15T04:14:59.953Z,54.35
2023-02-15T04:17:26.706Z,54.48
2023-02-15T04:20:11.928Z,54.64
2023-02-15T04:22:57.178Z,54.61
2023-02-15T04:25:23.918Z,54.72
2023-02-15T04:27:52.281Z,54.64
2023-02-15T04:30:24.735Z,54.83
2023-02-15T04:32:52.097Z,54.69
2023-02-15T04:35:18.936Z,54.86
2023-02-15T04:37:50.327Z,54.95
2023-02-15T04:40:19.352Z,54.76
2023-02-15T04:42:51.299Z,54.83
2023-02-15T04:45:18.186Z,54.78
2023-02-15T04:47:44.995Z,54.64
2023-02-15T04:50:11.911Z,54.37
2023-02-15T04:52:38.570Z,54.54
2023-02-15T04:55:05.515Z,54.69
2023-02-15T04:57:34.354Z,54.51
2023-02-15T05:00:03.489Z,54.77
2023-02-15T05:02:30.152Z,54.81
2023-02-15T05:04:56.866Z,54.79
2023-02-15T05:07:25.636Z,54.86
2023-02-15T05:09:52.216Z,54.73
2023-02-15T05:12:21.039Z,54.78
2023-02-15T05:14:50.046Z,54.50
2023-02-15T05:17:19.765Z,54.82
2023-02-15T05:19:48.624Z,54.82
2023-02-15T05:22:17.599Z,54.69
2023-02-15T05:25:05.390Z,54.66
2023-02-15T05:27:50.609Z,54.66
2023-02-15T05:30:22.036Z,54.67
2023-02-15T05:32:50.968Z,54.63
2023-02-15T05:35:19.779Z,54.71
2023-02-15T05:37:46.561Z,54.77
2023-02-15T05:40:15.866Z,54.91
2023-02-15T05:42:44.639Z,54.71
2023-02-15T05:45:14.074Z,54.66
2023-02-15T05:47:43.569Z,54.81
2023-02-15T05:50:13.496Z,54.63
2023-02-15T05:52:40.157Z,54.64
2023-02-15T05:55:10.152Z,54.65
2023-02-15T05:57:39.658Z,54.59
2023-02-15T06:00:06.956Z,54.64
2023-02-15T06:02:42.442Z,54.66
2023-02-15T06:05:09.248Z,54.92
2023-02-15T06:07:38.101Z,54.64
2023-02-15T06:10:05.617Z,54.80
2023-02-15T06:12:32.305Z,54.97
2023-02-15T06:15:01.902Z,55.32
2023-02-15T06:17:30.856Z,55.11
2023-02-15T06:19:59.688Z,55.45
2023-02-15T06:22:28.681Z,55.11
2023-02-15T06:24:55.376Z,55.17
2023-02-15T06:27:22.070Z,55.37
2023-02-15T06:29:48.709Z,55.04
2023-02-15T06:32:17.574Z,55.11
2023-02-15T06:34:48.498Z,55.44
2023-02-15T06:37:17.613Z,55.46
2023-02-15T06:39:45.193Z,55.14
2023-02-15T06:42:14.279Z,55.60
2023-02-15T06:44:43.719Z,55.45
2023-02-15T06:47:12.504Z,55.32
2023-02-15T06:49:41.247Z,50.37
2023-02-15T06:52:07.933Z,38.11
2023-02-15T06:54:36.681Z,38.80
2023-02-15T06:57:05.692Z,41.99
2023-02-15T06:59:32.438Z,45.00
2023-02-15T07:02:01.348Z,45.10
2023-02-15T07:04:29.802Z,45.85
2023-02-15T07:06:56.623Z,46.13
2023-02-15T07:09:26.057Z,46.21
2023-02-15T07:12:13.705Z,46.09
2023-02-15T07:14:41.640Z,42.52
2023-02-15T07:17:35.151Z,43.13
2023-02-15T07:20:02.663Z,40.41
2023-02-15T07:22:29.321Z,40.36
2023-02-15T07:24:58.109Z,43.13
2023-02-15T07:27:29.415Z,42.68
2023-02-15T07:29:55.925Z,43.19
2023-02-15T07:32:22.697Z,43.20
2023-02-15T07:34:49.349Z,42.85
2023-02-15T07:37:21.231Z,41.88
2023-02-15T07:39:47.871Z,41.20
2023-02-15T07:42:17.339Z,41.78
2023-02-15T07:44:46.279Z,40.79
2023-02-15T07:47:13.205Z,40.93
2023-02-15T07:49:41.972Z,42.02
2023-02-15T07:52:10.880Z,41.24
2023-02-15T07:54:39.867Z,41.13
2023-02-15T07:57:09.570Z,41.53
2023-02-15T07:59:36.224Z,41.38
2023-02-15T08:02:03.019Z,41.51
2023-02-15T08:04:29.749Z,41.77
2023-02-15T08:06:58.979Z,41.53
2023-02-15T08:09:27.982Z,41.72
2023-02-15T08:11:57.597Z,41.86
2023-02-15T08:14:26.349Z,41.83
2023-02-15T08:16:56.881Z,41.83
2023-02-15T08:19:24.631Z,41.63
2023-02-15T08:21:58.476Z,41.50
2023-02-15T08:24:26.676Z,41.79
2023-02-15T08:26:55.455Z,41.87
2023-02-15T08:29:23.673Z,42.00
2023-02-15T08:31:51.173Z,41.95
2023-02-15T08:34:19.012Z,42.00
2023-02-15T08:36:48.319Z,42.14
2023-02-15T08:39:17.676Z,42.13
2023-02-15T08:41:47.054Z,42.03
2023-02-15T08:44:18.584Z,41.95
2023-02-15T08:46:49.611Z,41.88
2023-02-15T08:49:19.432Z,41.87
2023-02-15T08:51:49.544Z,41.87
2023-02-15T08:54:19.880Z,41.60
2023-02-15T08:56:49.998Z,41.56
2023-02-15T08:59:22.719Z,41.83
2023-02-15T09:01:58.881Z,41.72
2023-02-15T09:04:31.476Z,41.98
2023-02-15T09:07:01.300Z,41.82
2023-02-15T09:09:33.994Z,41.62
2023-02-15T09:12:09.776Z,41.43
2023-02-15T09:15:15.628Z,41.45
2023-02-15T09:17:47.028Z,41.65
2023-02-15T09:20:16.060Z,41.77
2023-02-15T09:22:42.652Z,42.04
2023-02-15T09:25:11.604Z,41.64
2023-02-15T09:27:40.785Z,41.99
2023-02-15T09:30:10.186Z,42.15
2023-02-15T09:32:39.329Z,42.09
2023-02-15T09:35:08.671Z,41.98
2023-02-15T09:37:39.937Z,41.97
2023-02-15T09:40:07.062Z,41.28
2023-02-15T09:42:39.563Z,41.85
2023-02-15T09:45:34.491Z,41.61
2023-02-15T09:48:28.770Z,41.62
2023-02-15T09:51:20.436Z,41.69
2023-02-15T09:54:01.977Z,41.80
2023-02-15T09:56:44.436Z,41.91
2023-02-15T09:59:32.465Z,41.61
2023-02-15T10:01:58.996Z,41.69
2023-02-15T10:04:53.399Z,41.60
2023-02-15T10:07:56.993Z,41.73
2023-02-15T10:10:35.585Z,42.03
2023-02-15T10:13:21.900Z,42.15
2023-02-15T10:16:30.349Z,42.15
2023-02-15T10:19:34.344Z,42.03
2023-02-15T10:22:19.690Z,41.75
2023-02-15T10:25:13.011Z,41.73
2023-02-15T10:27:49.922Z,41.85
2023-02-15T10:30:21.589Z,41.69
2023-02-15T10:33:05.326Z,41.54
2023-02-15T10:35:42.203Z,41.64
2023-02-15T10:38:08.798Z,41.83
2023-02-15T10:41:00.859Z,41.84
2023-02-15T10:43:58.264Z,41.49
2023-02-15T10:46:48.118Z,41.87
2023-02-15T10:49:20.652Z,41.78
2023-02-15T10:51:50.338Z,41.67
2023-02-15T10:54:34.981Z,41.47
2023-02-15T10:57:07.105Z,41.19
2023-02-15T11:00:00.838Z,41.31
2023-02-15T11:03:01.460Z,41.15
2023-02-15T11:05:44.556Z,41.23
2023-02-15T11:08:14.466Z,41.35
2023-02-15T11:10:52.634Z,41.04
2023-02-15T11:13:24.372Z,41.32
2023-02-15T11:15:58.468Z,41.40
2023-02-15T11:18:28.868Z,41.49
2023-02-15T11:21:15.653Z,41.58
2023-02-15T11:23:45.702Z,41.64
2023-02-15T11:26:18.450Z,41.73
2023-02-15T11:28:51.671Z,41.68
2023-02-15T11:31:23.457Z,41.36
2023-02-15T11:34:05.057Z,40.53
2023-02-15T11:36:37.458Z,40.54
2023-02-15T11:39:12.287Z,40.49
2023-02-15T11:41:42.356Z,40.94
2023-02-15T11:44:32.732Z,41.21
2023-02-15T11:46:59.998Z,41.40
2023-02-15T11:49:34.085Z,41.38
2023-02-15T11:52:07.661Z,41.83
2023-02-15T11:54:39.086Z,41.66
2023-02-15T11:57:36.634Z,41.78
2023-02-15T12:00:12.430Z,41.91
2023-02-15T12:02:44.356Z,41.96
2023-02-15T12:05:14.846Z,41.93
2023-02-15T12:07:49.786Z,42.03
2023-02-15T12:10:30.269Z,41.96
2023-02-15T12:13:13.257Z,42.27
2023-02-15T12:15:47.755Z,42.24
2023-02-15T12:18:36.249Z,42.30
2023-02-15T12:21:11.342Z,42.24
2023-02-15T12:23:47.999Z,42.47
2023-02-15T12:26:14.690Z,42.14
2023-02-15T12:28:47.160Z,42.03
2023-02-15T12:31:28.185Z,41.93
2023-02-15T12:33:59.119Z,42.07
2023-02-15T12:36:30.341Z,42.09
2023-02-15T12:39:15.662Z,42.11
2023-02-15T12:41:45.990Z,42.26
2023-02-15T12:44:24.339Z,42.16
2023-02-15T12:46:57.774Z,42.27
2023-02-15T12:49:29.334Z,42.27
2023-02-15T12:51:59.777Z,42.23
2023-02-15T12:54:36.651Z,42.17
2023-02-15T12:57:15.339Z,42.06
2023-02-15T12:59:53.844Z,42.04
2023-02-15T13:02:31.090Z,42.07
2023-02-15T13:04:57.916Z,41.96
2023-02-15T13:07:25.626Z,41.96
2023-02-15T13:23:31.187Z,40.29
2023-02-15T13:25:59.623Z,41.79
2023-02-15T13:28:31.229Z,41.96
2023-02-15T13:30:57.984Z,41.93
2023-02-15T13:33:37.577Z,42.02
2023-02-15T13:36:24.779Z,42.11
2023-02-15T13:39:11.775Z,41.76
2023-02-15T13:41:38.395Z,42.27
2023-02-15T13:44:21.293Z,41.03
2023-02-15T13:47:07.928Z,41.12
2023-02-15T13:49:50.796Z,40.64
2023-02-15T13:52:25.799Z,41.09
2023-02-15T13:54:58.235Z,41.47
2023-02-15T13:57:34.015Z,41.39
2023-02-15T14:00:22.725Z,41.14
2023-02-15T14:03:06.007Z,41.36
2023-02-15T14:05:54.324Z,41.36
2023-02-15T14:08:41.773Z,41.28
2023-02-15T14:11:10.258Z,41.25
2023-02-15T14:13:46.244Z,41.26
2023-02-15T14:16:22.403Z,41.22
2023-02-15T14:19:05.580Z,41.94
2023-02-15T14:21:33.562Z,41.79
2023-02-15T14:24:19.193Z,41.82
2023-02-15T14:26:53.968Z,41.94
2023-02-15T14:29:42.467Z,41.55
2023-02-15T14:32:22.099Z,41.63
2023-02-15T14:34:57.372Z,41.82
2023-02-15T14:37:56.118Z,41.63
2023-02-15T14:40:56.641Z,41.33
2023-02-15T14:43:53.105Z,41.98
2023-02-15T14:46:22.714Z,42.03
2023-02-15T14:48:50.678Z,42.30
2023-02-15T14:51:46.479Z,42.72
2023-02-15T14:54:22.106Z,42.63
2023-02-15T14:57:03.976Z,43.02
2023-02-15T14:59:33.592Z,42.99
2023-02-15T15:02:10.415Z,43.05
2023-02-15T15:04:52.614Z,42.92
2023-02-15T15:07:26.951Z,43.01
2023-02-15T15:10:16.774Z,43.25
2023-02-15T15:12:50.354Z,43.01
2023-02-15T15:15:30.698Z,43.10
2023-02-15T15:18:10.812Z,43.34
2023-02-15T15:20:51.829Z,43.27
2023-02-15T15:23:22.024Z,43.29
2023-02-15T15:26:22.356Z,43.26
2023-02-15T15:28:48.873Z,43.25
2023-02-15T15:31:32.696Z,43.19
2023-02-15T15:34:17.599Z,43.46
2023-02-15T15:37:02.522Z,43.44
2023-02-15T15:40:03.340Z,43.35
2023-02-15T15:42:37.125Z,43.47
2023-02-15T15:45:12.891Z,43.36
2023-02-15T15:48:06.372Z,43.50
2023-02-15T15:50:33.960Z,43.40
2023-02-15T15:53:01.385Z,43.67
2023-02-15T15:55:29.472Z,43.41
2023-02-15T15:58:06.568Z,43.51
2023-02-15T16:00:41.716Z,43.54
2023-02-15T16:03:22.080Z,43.43
2023-02-15T16:05:53.983Z,43.56
2023-02-15T16:08:35.303Z,43.30
2023-02-15T16:11:08.671Z,43.50
2023-02-15T16:13:35.294Z,43.18
2023-02-15T16:16:02.241Z,43.13
2023-02-15T16:18:31.710Z,43.28
2023-02-15T16:21:00.112Z,43.19
2023-02-15T16:23:35.999Z,43.37
2023-02-15T16:26:02.958Z,43.25
2023-02-15T16:28:29.960Z,43.24
2023-02-15T16:31:07.214Z,43.33
2023-02-15T16:33:41.331Z,43.15
2023-02-15T16:36:21.005Z,43.26
2023-02-15T16:38:47.633Z,43.03
2023-02-15T16:41:17.494Z,42.96
2023-02-15T16:43:45.626Z,43.17
2023-02-15T16:46:13.411Z,43.11
2023-02-15T16:48:44.477Z,43.08
2023-02-15T16:51:11.185Z,42.99
2023-02-15T16:53:37.890Z,42.79
2023-02-15T16:56:05.881Z,43.12
2023-02-15T16:58:48.656Z,42.89
2023-02-15T17:01:16.124Z,42.87
2023-02-15T17:03:48.174Z,42.76
2023-02-15T17:06:22.763Z,42.64
2023-02-15T17:08:52.884Z,42.77
2023-02-15T17:11:23.598Z,42.79
2023-02-15T17:14:05.771Z,42.67
2023-02-15T17:16:35.176Z,42.57
2023-02-15T17:19:02.810Z,42.81
2023-02-15T17:21:33.088Z,42.74
2023-02-15T17:24:01.407Z,42.63
2023-02-15T17:26:31.596Z,42.56
2023-02-15T17:29:02.235Z,42.59
2023-02-15T17:31:33.245Z,42.68
2023-02-15T17:34:00.970Z,42.53
2023-02-15T17:36:30.344Z,42.66
2023-02-15T17:39:03.337Z,42.54
2023-02-15T17:41:33.673Z,42.56
2023-02-15T17:44:02.572Z,42.67
2023-02-15T17:46:32.985Z,42.57
2023-02-15T17:48:59.732Z,42.43
2023-02-15T17:51:26.418Z,42.68
2023-02-15T17:54:11.476Z,42.42
2023-02-15T17:56:38.710Z,42.56
2023-02-15T17:59:08.188Z,42.57
2023-02-15T18:02:04.360Z,42.61
2023-02-15T18:04:50.899Z,42.61
2023-02-15T18:07:41.770Z,42.62
2023-02-15T18:10:40.461Z,42.55
2023-02-15T18:13:07.183Z,42.42
2023-02-15T18:15:33.873Z,42.52
2023-02-15T18:18:02.691Z,42.34
2023-02-15T18:20:34.926Z,42.47
2023-02-15T18:23:02.295Z,42.38
2023-02-15T18:25:28.931Z,42.36
2023-02-15T18:27:55.647Z,42.33
2023-02-15T18:30:23.861Z,42.24
2023-02-15T18:32:51.519Z,42.41
2023-02-15T18:35:22.987Z,42.09
2023-02-15T18:37:52.612Z,42.01
2023-02-15T18:40:21.134Z,41.97
2023-02-15T18:42:49.089Z,41.86
2023-02-15T18:45:15.977Z,41.97
2023-02-15T18:47:42.665Z,41.92
2023-02-15T18:50:09.507Z,42.00
2023-02-15T18:52:40.342Z,41.78
2023-02-15T18:55:17.558Z,42.04
2023-02-15T18:57:45.902Z,42.08
2023-02-15T19:00:20.656Z,42.01
2023-02-15T19:02:47.339Z,41.89
2023-02-15T19:05:16.191Z,42.01
2023-02-15T19:07:45.362Z,41.92
2023-02-15T19:10:24.224Z,42.00
2023-02-15T19:12:54.088Z,42.00
2023-02-15T19:15:26.244Z,41.90
2023-02-15T19:17:56.206Z,42.09
2023-02-15T19:20:28.534Z,42.09
2023-02-15T19:22:56.100Z,41.78
2023-02-15T19:25:25.298Z,41.81
2023-02-15T19:27:52.388Z,41.91
2023-02-15T19:30:21.969Z,41.92
2023-02-15T19:32:48.705Z,41.98
2023-02-15T19:35:22.632Z,41.97
2023-02-15T19:37:53.571Z,41.90
2023-02-15T19:40:25.977Z,41.72
2023-02-15T19:42:52.793Z,41.70
2023-02-15T19:45:21.504Z,41.96
2023-02-15T19:47:51.837Z,41.49
2023-02-15T19:50:19.553Z,41.46
2023-02-15T19:52:46.459Z,41.67
2023-02-15T19:55:26.542Z,41.43
2023-02-15T19:57:56.867Z,41.33
2023-02-15T20:00:27.795Z,41.51
2023-02-15T20:02:56.717Z,41.41
2023-02-15T20:05:30.435Z,41.36
2023-02-15T20:07:59.462Z,41.45
2023-02-15T20:10:32.657Z,41.38
2023-02-15T20:13:01.438Z,41.28
2023-02-15T20:15:34.431Z,41.38
2023-02-15T20:18:03.699Z,41.39
2023-02-15T20:20:35.998Z,41.37
2023-02-15T20:23:02.784Z,41.40
2023-02-15T20:25:34.783Z,41.35
2023-02-15T20:28:04.143Z,41.39
2023-02-15T20:30:41.087Z,41.34
2023-02-15T20:33:11.237Z,41.31
2023-02-15T20:35:40.101Z,41.24
2023-02-15T20:38:08.898Z,41.25
2023-02-15T20:40:35.685Z,41.48
2023-02-15T20:43:02.769Z,41.44
2023-02-15T20:45:31.220Z,41.40
2023-02-15T20:47:58.609Z,41.46
2023-02-15T20:50:27.333Z,41.35
2023-02-15T20:52:55.041Z,41.16
2023-02-15T20:55:29.849Z,41.31
2023-02-15T20:57:59.949Z,41.53
2023-02-15T21:00:31.251Z,41.34
2023-02-15T21:02:59.121Z,41.35
2023-02-15T21:05:31.342Z,41.37
2023-02-15T21:07:58.055Z,41.28
2023-02-15T21:10:26.615Z,41.12
2023-02-15T21:12:57.079Z,41.28
2023-02-15T21:15:37.556Z,41.28
2023-02-15T21:18:06.500Z,41.26
2023-02-15T21:20:33.625Z,41.12
2023-02-15T21:23:02.903Z,41.23
2023-02-15T21:25:39.283Z,41.20
2023-02-15T21:28:07.534Z,41.03
2023-02-15T21:30:36.634Z,41.00
2023-02-15T21:33:05.709Z,40.98
2023-02-15T21:35:35.110Z,40.83
2023-02-15T21:38:04.021Z,40.93
2023-02-15T21:40:34.449Z,41.02
2023-02-15T21:43:19.600Z,41.02
2023-02-15T21:46:05.390Z,40.92
2023-02-15T21:48:34.893Z,40.67
2023-02-15T21:51:20.469Z,40.93
2023-02-15T21:53:49.514Z,40.88
2023-02-15T21:56:20.332Z,40.80
2023-02-15T21:58:47.145Z,40.66
2023-02-15T22:01:27.024Z,40.79
2023-02-15T22:03:54.898Z,40.88
2023-02-15T22:06:21.684Z,40.85
2023-02-15T22:08:50.707Z,40.89
2023-02-15T22:11:22.504Z,40.96
2023-02-15T22:13:49.256Z,41.17
2023-02-15T22:16:20.537Z,41.29
2023-02-15T22:18:49.609Z,41.29
2023-02-15T22:21:19.453Z,41.55
2023-02-15T22:23:47.243Z,41.75
2023-02-15T22:26:24.348Z,41.87
2023-02-15T22:28:50.970Z,41.81
2023-02-15T22:31:20.051Z,42.04
2023-02-15T22:33:49.707Z,41.88
2023-02-15T22:36:29.846Z,41.81
2023-02-15T22:38:58.904Z,41.94
2023-02-15T22:41:28.041Z,41.90
2023-02-15T22:43:54.729Z,41.78
2023-02-15T22:46:22.678Z,42.13
2023-02-15T22:48:51.661Z,43.59
2023-02-15T22:51:26.609Z,44.82
2023-02-15T22:53:56.052Z,30.89
2023-02-15T22:56:46.643Z,38.15
2023-02-15T22:59:34.152Z,42.92
2023-02-15T23:02:03.416Z,44.50
2023-02-15T23:04:30.219Z,44.52
2023-02-15T23:06:59.451Z,44.71
2023-02-15T23:09:28.801Z,44.93
2023-02-15T23:11:58.401Z,45.02
2023-02-15T23:14:32.737Z,45.29
2023-02-15T23:17:00.813Z,45.26
2023-02-15T23:19:30.750Z,45.59
2023-02-15T23:21:57.665Z,45.67
2023-02-15T23:24:26.836Z,45.66
2023-02-15T23:26:53.465Z,45.76
2023-02-15T23:29:28.433Z,45.74
2023-02-15T23:31:55.147Z,45.68
2023-02-15T23:34:26.434Z,45.98
2023-02-15T23:36:52.926Z,45.93
2023-02-15T23:39:39.851Z,45.93
2023-02-15T23:42:10.814Z,46.05
2023-02-15T23:44:37.476Z,46.15
2023-02-15T23:47:04.195Z,46.00
2023-02-15T23:49:30.867Z,46.01
2023-02-15T23:51:57.726Z,46.00
2023-02-15T23:54:25.825Z,46.11
2023-02-15T23:56:57.733Z,45.99
2023-02-15T23:59:27.869Z,45.85
